createdAt,value
2023-04-16T00:00:49.912Z,78.02
2023-04-16T00:06:07.407Z,77.96
2023-04-16T00:11:10.686Z,78.21
2023-04-16T00:16:13.605Z,78.37
2023-04-16T00:21:16.450Z,78.69
2023-04-16T00:26:19.280Z,78.94
2023-04-16T00:31:31.153Z,78.52
2023-04-16T00:36:34.218Z,78.49
2023-04-16T00:41:38.858Z,78.78
2023-04-16T00:46:42.907Z,78.55
2023-04-16T00:51:46.439Z,78.16
2023-04-16T00:56:50.065Z,78.17
2023-04-16T01:01:53.049Z,78.53
2023-04-16T01:06:56.327Z,78.45
2023-04-16T01:11:59.203Z,78.75
2023-04-16T01:17:03.963Z,78.95
2023-04-16T01:22:06.857Z,79.50
2023-04-16T01:27:09.754Z,79.42
2023-04-16T01:32:12.776Z,79.28
2023-04-16T01:37:18.035Z,79.35
2023-04-16T01:42:20.932Z,79.10
2023-04-16T01:47:23.835Z,78.89
2023-04-16T01:52:26.992Z,78.88
2023-04-16T01:57:29.949Z,78.67
2023-04-16T02:02:32.964Z,78.80
2023-04-16T02:07:36.465Z,79.02
2023-04-16T02:12:39.500Z,78.72
2023-04-16T02:17:42.508Z,78.55
2023-04-16T02:22:45.464Z,78.26
2023-04-16T02:27:48.410Z,78.10
2023-04-16T02:32:51.272Z,78.09
2023-04-16T02:37:54.281Z,78.05
2023-04-16T02:42:58.100Z,77.93
2023-04-16T02:48:01.139Z,78.20
2023-04-16T02:53:04.537Z,77.97
2023-04-16T02:58:07.448Z,78.35
2023-04-16T03:03:10.376Z,78.37
2023-04-16T03:08:13.394Z,78.16
2023-04-16T03:13:16.249Z,77.89
2023-04-16T03:18:19.078Z,78.01
2023-04-16T03:23:21.934Z,77.95
2023-04-16T03:28:24.805Z,77.92
2023-04-16T03:33:27.729Z,78.06
2023-04-16T03:38:30.595Z,78.11
2023-04-16T03:43:33.867Z,77.90
2023-04-16T03:48:37.240Z,78.26
2023-04-16T03:53:40.077Z,78.23
2023-04-16T03:58:42.871Z,78.03
2023-04-16T04:03:46.189Z,78.19
2023-04-16T04:08:49.242Z,78.08
2023-04-16T04:13:52.683Z,77.61
2023-04-16T04:18:55.840Z,77.78
2023-04-16T04:23:58.832Z,77.99
2023-04-16T04:29:01.808Z,77.76
2023-04-16T04:34:04.901Z,78.13
2023-04-16T04:39:07.930Z,78.60
2023-04-16T04:44:11.082Z,78.48
2023-04-16T04:49:13.931Z,78.34
2023-04-16T04:54:16.768Z,78.90
2023-04-16T04:59:21.794Z,78.85
2023-04-16T05:04:24.733Z,79.01
2023-04-16T05:09:27.580Z,78.78
2023-04-16T05:14:30.590Z,78.13
2023-04-16T05:19:33.965Z,77.90
2023-04-16T05:24:36.799Z,78.17
2023-04-16T05:29:39.717Z,78.65
2023-04-16T05:34:42.575Z,79.23
2023-04-16T05:39:45.487Z,79.17
2023-04-16T05:44:48.348Z,79.60
2023-04-16T05:49:51.180Z,79.92
2023-04-16T05:54:54.015Z,79.89
2023-04-16T05:59:56.959Z,80.61
2023-04-16T06:04:59.787Z,80.22
2023-04-16T06:10:02.622Z,79.46
2023-04-16T06:15:06.795Z,79.12
2023-04-16T06:20:11.274Z,78.96
2023-04-16T06:25:15.218Z,78.45
2023-04-16T06:30:20.224Z,78.14
2023-04-16T06:35:23.071Z,77.95
2023-04-16T06:40:26.510Z,78.15
2023-04-16T06:45:29.468Z,77.87
2023-04-16T06:50:32.404Z,77.30
2023-04-16T06:55:35.241Z,77.92
2023-04-16T07:00:38.105Z,77.90
2023-04-16T07:05:41.098Z,78.41
2023-04-16T07:10:43.948Z,78.22
2023-04-16T07:15:46.751Z,77.65
2023-04-16T07:20:49.755Z,77.31
2023-04-16T07:25:52.647Z,77.26
2023-04-16T07:30:55.709Z,77.73
2023-04-16T07:35:58.579Z,77.66
2023-04-16T07:41:02.001Z,76.63
2023-04-16T07:46:05.009Z,75.98
2023-04-16T07:51:08.003Z,75.62
2023-04-16T07:56:11.032Z,75.69
2023-04-16T08:01:14.371Z,76.13
2023-04-16T08:06:17.219Z,77.10
2023-04-16T08:11:20.631Z,75.90
2023-04-16T08:16:24.261Z,75.79
2023-04-16T08:21:30.868Z,75.85
2023-04-16T08:26:33.699Z,75.29
2023-04-16T08:31:36.869Z,74.06
2023-04-16T08:36:41.311Z,74.20
2023-04-16T08:41:47.009Z,74.47
2023-04-16T08:46:54.861Z,74.68
2023-04-16T08:51:57.835Z,73.70
2023-04-16T08:57:05.596Z,73.02
2023-04-16T09:02:12.240Z,72.68
2023-04-16T09:07:17.022Z,71.46
2023-04-16T09:12:24.227Z,71.95
2023-04-16T09:17:27.861Z,71.37
2023-04-16T09:22:30.850Z,71.78
2023-04-16T09:27:34.041Z,71.83
2023-04-16T09:32:36.961Z,72.01
2023-04-16T09:37:39.826Z,71.68
2023-04-16T09:42:42.634Z,72.06
2023-04-16T09:47:46.471Z,71.85
2023-04-16T09:52:51.634Z,72.22
2023-04-16T09:58:01.985Z,71.92
2023-04-16T10:03:09.117Z,71.60
2023-04-16T10:08:13.803Z,71.37
2023-04-16T10:13:19.275Z,71.17
2023-04-16T10:18:23.251Z,70.89
2023-04-16T10:23:27.064Z,71.09
2023-04-16T10:28:30.774Z,70.74
2023-04-16T10:33:41.471Z,70.11
2023-04-16T10:38:52.554Z,70.06
2023-04-16T10:44:06.607Z,70.06
2023-04-16T10:49:19.382Z,69.74
2023-04-16T10:54:31.141Z,70.73
2023-04-16T10:59:37.521Z,69.95
2023-04-16T11:04:50.169Z,69.14
2023-04-16T11:10:12.869Z,69.07
2023-04-16T11:15:19.743Z,69.25
2023-04-16T11:20:27.969Z,69.29
2023-04-16T11:25:31.864Z,69.66
2023-04-16T11:30:38.203Z,69.83
2023-04-16T11:35:41.685Z,70.25
2023-04-16T11:40:44.686Z,68.91
2023-04-16T11:46:07.887Z,69.11
2023-04-16T11:51:16.835Z,69.66
2023-04-16T11:56:30.113Z,69.61
2023-04-16T12:01:39.728Z,68.90
2023-04-16T12:07:12.824Z,68.04
2023-04-16T12:12:31.452Z,67.82
2023-04-16T12:17:36.599Z,67.23
2023-04-16T12:22:45.041Z,66.94
2023-04-16T12:27:53.819Z,66.69
2023-04-16T12:33:18.608Z,66.25
2023-04-16T12:38:24.064Z,66.83
2023-04-16T12:43:27.726Z,66.44
2023-04-16T12:48:32.432Z,65.67
2023-04-16T12:53:35.246Z,65.02
2023-04-16T12:58:38.035Z,64.76
2023-04-16T13:03:41.618Z,65.03
2023-04-16T13:08:45.674Z,64.32
2023-04-16T13:13:48.482Z,62.85
2023-04-16T13:18:51.328Z,62.76
2023-04-16T13:23:54.189Z,62.40
2023-04-16T13:28:57.048Z,61.75
2023-04-16T13:34:01.611Z,61.91
2023-04-16T13:39:05.439Z,61.46
2023-04-16T13:44:08.294Z,61.07
2023-04-16T13:49:11.297Z,60.92
2023-04-16T13:54:14.482Z,60.89
2023-04-16T13:59:18.200Z,60.81
2023-04-16T14:04:22.537Z,60.14
2023-04-16T14:09:25.548Z,59.32
2023-04-16T14:14:29.024Z,60.22
2023-04-16T14:19:31.782Z,60.16
2023-04-16T14:24:34.653Z,59.61
2023-04-16T14:29:37.609Z,59.06
2023-04-16T14:34:40.593Z,58.94
2023-04-16T14:39:43.527Z,59.30
2023-04-16T14:44:46.391Z,59.33
2023-04-16T14:49:49.231Z,59.31
2023-04-16T14:54:52.651Z,59.93
2023-04-16T14:59:55.502Z,59.45
2023-04-16T15:04:58.302Z,60.18
2023-04-16T15:10:01.105Z,59.57
2023-04-16T15:15:08.675Z,59.18
2023-04-16T15:20:12.338Z,58.88
2023-04-16T15:25:15.218Z,59.04
2023-04-16T15:30:18.940Z,59.34
2023-04-16T15:35:21.978Z,58.86
2023-04-16T15:40:25.379Z,58.77
2023-04-16T15:45:28.265Z,58.75
2023-04-16T15:50:32.064Z,58.47
2023-04-16T15:55:35.965Z,58.97
2023-04-16T16:00:39.190Z,59.05
2023-04-16T16:05:42.079Z,59.86
2023-04-16T16:10:45.024Z,60.56
2023-04-16T16:15:47.886Z,60.39
2023-04-16T16:20:52.958Z,61.25
2023-04-16T16:25:56.144Z,61.67
2023-04-16T16:31:01.346Z,61.46
2023-04-16T16:36:06.273Z,61.11
2023-04-16T16:41:09.176Z,61.34
2023-04-16T16:46:12.075Z,61.49
2023-04-16T16:51:18.862Z,62.51
2023-04-16T16:56:21.871Z,63.09
2023-04-16T17:01:28.349Z,62.83
2023-04-16T17:06:33.422Z,62.36
2023-04-16T17:11:36.801Z,62.66
2023-04-16T17:16:39.712Z,63.25
2023-04-16T17:21:42.777Z,63.84
2023-04-16T17:26:46.303Z,64.22
2023-04-16T17:31:49.063Z,64.71
2023-04-16T17:36:51.914Z,64.98
2023-04-16T17:41:58.541Z,64.70
2023-04-16T17:47:02.241Z,64.69
2023-04-16T17:52:06.566Z,64.38
2023-04-16T17:57:09.495Z,64.75
2023-04-16T18:02:12.395Z,65.57
2023-04-16T18:07:15.830Z,66.02
2023-04-16T18:12:18.682Z,66.02
2023-04-16T18:17:24.388Z,66.07
2023-04-16T18:22:28.615Z,65.86
2023-04-16T18:27:31.528Z,65.82
2023-04-16T18:32:36.654Z,65.86
2023-04-16T18:37:40.463Z,65.79
2023-04-16T18:42:43.395Z,65.97
2023-04-16T18:47:47.814Z,66.05
2023-04-16T18:52:51.016Z,66.13
2023-04-16T18:57:55.249Z,66.06
2023-04-16T19:02:58.118Z,66.03
2023-04-16T19:08:01.425Z,66.07
2023-04-16T19:13:04.344Z,66.46
2023-04-16T19:18:07.246Z,66.93
2023-04-16T19:23:10.451Z,67.75
2023-04-16T19:28:13.253Z,68.17
2023-04-16T19:33:16.053Z,68.60
2023-04-16T19:38:18.831Z,68.48
2023-04-16T19:43:21.718Z,68.66
2023-04-16T19:48:24.659Z,68.74
2023-04-16T19:53:27.501Z,69.08
2023-04-16T19:58:30.314Z,69.27
2023-04-16T20:03:33.188Z,69.61
2023-04-16T20:08:36.953Z,69.81
2023-04-16T20:13:39.694Z,69.73
2023-04-16T20:18:42.593Z,70.04
2023-04-16T20:23:45.778Z,70.02
2023-04-16T20:28:48.607Z,69.98
2023-04-16T20:33:51.472Z,70.45
2023-04-16T20:38:54.321Z,70.59
2023-04-16T20:43:57.155Z,70.45
2023-04-16T20:49:01.296Z,70.37
2023-04-16T20:54:04.262Z,70.26
2023-04-16T20:59:07.183Z,70.53
2023-04-16T21:04:10.179Z,70.54
2023-04-16T21:09:13.393Z,70.73
2023-04-16T21:14:16.453Z,71.04
2023-04-16T21:19:19.307Z,71.17
2023-04-16T21:24:22.135Z,71.18
2023-04-16T21:29:24.968Z,71.15
2023-04-16T21:34:27.815Z,71.21
2023-04-16T21:39:31.276Z,71.28
2023-04-16T21:44:34.129Z,71.67
2023-04-16T21:49:36.948Z,71.49
2023-04-16T21:54:42.598Z,71.52
2023-04-16T21:59:45.476Z,71.48
2023-04-16T22:04:48.860Z,71.51
2023-04-16T22:09:53.370Z,71.49
2023-04-16T22:15:02.331Z,71.69
2023-04-16T22:20:14.752Z,71.72
2023-04-16T22:25:17.580Z,71.82
2023-04-16T22:30:20.734Z,71.79
2023-04-16T22:35:23.560Z,71.65
2023-04-16T22:40:26.409Z,71.58
2023-04-16T22:45:29.436Z,71.68
2023-04-16T22:50:32.367Z,71.83
2023-04-16T22:55:35.183Z,71.84
2023-04-16T23:00:38.124Z,71.74
2023-04-16T23:05:40.964Z,71.91
2023-04-16T23:10:44.343Z,72.05
2023-04-16T23:15:47.470Z,72.26
2023-04-16T23:20:54.038Z,72.42
2023-04-16T23:25:56.848Z,72.49
2023-04-16T23:30:59.760Z,72.88
2023-04-16T23:36:02.604Z,73.05
2023-04-16T23:41:05.580Z,72.91
2023-04-16T23:46:08.546Z,72.91
2023-04-16T23:51:11.640Z,73.01
2023-04-16T23:56:15.502Z,73.05
